sensor_id;sensor_type;location;lat;lon;timestamp;pressure;altitude;pressure_sealevel;temperature;humidity
71126;BME280;58785;55.566;38.058;2023-02-02T00:00:36;99358.41;;;1.60;72.94
71126;BME280;58785;55.566;38.058;2023-02-02T00:03:02;99362.50;;;1.64;72.61
71126;BME280;58785;55.566;38.058;2023-02-02T00:05:27;99357.50;;;1.61;72.67
71126;BME280;58785;55.566;38.058;2023-02-02T00:07:53;99357.38;;;1.63;72.80
71126;BME280;58785;55.566;38.058;2023-02-02T00:10:18;99359.28;;;1.61;72.58
71126;BME280;58785;55.566;38.058;2023-02-02T00:12:44;99360.72;;;1.65;72.77
71126;BME280;58785;55.566;38.058;2023-02-02T00:15:10;99362.63;;;1.63;72.91
71126;BME280;58785;55.566;38.058;2023-02-02T00:17:35;99359.16;;;1.62;72.57
71126;BME280;58785;55.566;38.058;2023-02-02T00:20:01;99357.75;;;1.69;72.68
71126;BME280;58785;55.566;38.058;2023-02-02T00:22:28;99348.44;;;1.65;72.74
71126;BME280;58785;55.566;38.058;2023-02-02T00:24:54;99346.88;;;1.63;72.75
71126;BME280;58785;55.566;38.058;2023-02-02T00:27:20;99333.19;;;1.58;72.64
71126;BME280;58785;55.566;38.058;2023-02-02T00:29:45;99349.25;;;1.66;72.58
71126;BME280;58785;55.566;38.058;2023-02-02T00:32:11;99352.63;;;1.68;72.38
71126;BME280;58785;55.566;38.058;2023-02-02T00:34:36;99343.06;;;1.67;72.50
71126;BME280;58785;55.566;38.058;2023-02-02T00:37:02;99346.22;;;1.72;72.41
71126;BME280;58785;55.566;38.058;2023-02-02T00:39:28;99351.22;;;1.75;72.46
71126;BME280;58785;55.566;38.058;2023-02-02T00:41:54;99357.03;;;1.67;72.59
71126;BME280;58785;55.566;38.058;2023-02-02T00:44:20;99348.19;;;1.68;72.68
71126;BME280;58785;55.566;38.058;2023-02-02T00:47:04;99350.81;;;1.68;72.55
71126;BME280;58785;55.566;38.058;2023-02-02T00:49:30;99353.56;;;1.67;73.03
71126;BME280;58785;55.566;38.058;2023-02-02T00:51:55;99348.94;;;1.70;72.78
71126;BME280;58785;55.566;38.058;2023-02-02T00:54:21;99347.16;;;1.71;72.84
71126;BME280;58785;55.566;38.058;2023-02-02T00:56:47;99345.44;;;1.70;72.52
71126;BME280;58785;55.566;38.058;2023-02-02T00:59:13;99340.19;;;1.70;72.41
71126;BME280;58785;55.566;38.058;2023-02-02T01:01:38;99341.16;;;1.69;72.33
71126;BME280;58785;55.566;38.058;2023-02-02T01:04:04;99345.56;;;1.68;72.44
71126;BME280;58785;55.566;38.058;2023-02-02T01:06:30;99340.66;;;1.64;72.64
71126;BME280;58785;55.566;38.058;2023-02-02T01:08:56;99347.47;;;1.66;72.82
71126;BME280;58785;55.566;38.058;2023-02-02T01:11:22;99345.78;;;1.65;72.62
71126;BME280;58785;55.566;38.058;2023-02-02T01:13:47;99346.63;;;1.66;72.45
71126;BME280;58785;55.566;38.058;2023-02-02T01:16:13;99351.06;;;1.65;72.72
71126;BME280;58785;55.566;38.058;2023-02-02T01:18:40;99346.09;;;1.73;72.34
71126;BME280;58785;55.566;38.058;2023-02-02T01:21:09;99354.59;;;1.77;72.55
71126;BME280;58785;55.566;38.058;2023-02-02T01:23:36;99345.03;;;1.76;72.31
71126;BME280;58785;55.566;38.058;2023-02-02T01:26:04;99345.25;;;1.73;72.89
71126;BME280;58785;55.566;38.058;2023-02-02T01:28:30;99347.75;;;1.75;72.79
71126;BME280;58785;55.566;38.058;2023-02-02T01:30:56;99334.22;;;1.68;72.54
71126;BME280;58785;55.566;38.058;2023-02-02T01:33:22;99339.47;;;1.68;72.49
71126;BME280;58785;55.566;38.058;2023-02-02T01:35:53;99334.44;;;1.65;72.60
71126;BME280;58785;55.566;38.058;2023-02-02T01:38:20;99335.50;;;1.62;72.35
71126;BME280;58785;55.566;38.058;2023-02-02T01:40:48;99331.81;;;1.65;72.66
71126;BME280;58785;55.566;38.058;2023-02-02T01:46:10;99312.84;;;1.49;72.86
71126;BME280;58785;55.566;38.058;2023-02-02T01:48:36;99331.41;;;1.58;72.71
71126;BME280;58785;55.566;38.058;2023-02-02T01:51:06;99333.09;;;1.59;72.46
71126;BME280;58785;55.566;38.058;2023-02-02T01:53:33;99333.00;;;1.61;72.78
71126;BME280;58785;55.566;38.058;2023-02-02T01:56:00;99329.72;;;1.57;72.62
71126;BME280;58785;55.566;38.058;2023-02-02T01:58:34;99324.81;;;1.53;72.51
71126;BME280;58785;55.566;38.058;2023-02-02T02:01:01;99336.28;;;1.52;72.80
71126;BME280;58785;55.566;38.058;2023-02-02T02:03:29;99317.25;;;1.48;72.37
71126;BME280;58785;55.566;38.058;2023-02-02T02:08:27;99336.47;;;1.49;72.51
71126;BME280;58785;55.566;38.058;2023-02-02T02:10:54;99334.69;;;1.49;72.59
71126;BME280;58785;55.566;38.058;2023-02-02T02:13:22;99329.78;;;1.44;72.43
71126;BME280;58785;55.566;38.058;2023-02-02T02:21:55;99325.09;;;1.24;72.93
71126;BME280;58785;55.566;38.058;2023-02-02T02:27:46;99327.53;;;1.14;72.40
71126;BME280;58785;55.566;38.058;2023-02-02T02:33:23;99339.47;;;1.19;72.89
71126;BME280;58785;55.566;38.058;2023-02-02T02:38:22;99343.59;;;1.23;72.34
71126;BME280;58785;55.566;38.058;2023-02-02T02:40:56;99324.50;;;1.21;72.87
71126;BME280;58785;55.566;38.058;2023-02-02T02:43:31;99342.66;;;1.24;72.25
71126;BME280;58785;55.566;38.058;2023-02-02T02:45:58;99348.41;;;1.29;72.54
71126;BME280;58785;55.566;38.058;2023-02-02T02:48:24;99340.00;;;1.24;72.14
71126;BME280;58785;55.566;38.058;2023-02-02T02:50:50;99338.34;;;1.23;72.80
71126;BME280;58785;55.566;38.058;2023-02-02T02:53:21;99336.56;;;1.23;72.19
71126;BME280;58785;55.566;38.058;2023-02-02T02:56:04;99338.44;;;1.21;72.32
71126;BME280;58785;55.566;38.058;2023-02-02T03:01:35;99354.22;;;1.21;72.49
71126;BME280;58785;55.566;38.058;2023-02-02T03:04:32;99341.59;;;1.13;72.54
71126;BME280;58785;55.566;38.058;2023-02-02T03:07:17;99352.59;;;1.19;72.69
71126;BME280;58785;55.566;38.058;2023-02-02T03:09:47;99355.34;;;1.17;72.84
71126;BME280;58785;55.566;38.058;2023-02-02T03:12:15;99353.78;;;1.14;72.50
71126;BME280;58785;55.566;38.058;2023-02-02T03:14:41;99356.84;;;1.21;72.10
71126;BME280;58785;55.566;38.058;2023-02-02T03:17:07;99361.97;;;1.23;72.39
71126;BME280;58785;55.566;38.058;2023-02-02T03:19:32;99343.72;;;1.21;72.61
71126;BME280;58785;55.566;38.058;2023-02-02T03:21:58;99352.91;;;1.27;72.61
71126;BME280;58785;55.566;38.058;2023-02-02T03:24:24;99360.81;;;1.27;72.54
71126;BME280;58785;55.566;38.058;2023-02-02T03:26:50;99358.41;;;1.24;72.41
71126;BME280;58785;55.566;38.058;2023-02-02T03:29:16;99357.44;;;1.25;72.46
71126;BME280;58785;55.566;38.058;2023-02-02T03:31:43;99355.66;;;1.25;72.54
71126;BME280;58785;55.566;38.058;2023-02-02T03:34:08;99356.38;;;1.27;72.24
71126;BME280;58785;55.566;38.058;2023-02-02T03:40:15;99352.50;;;1.20;72.50
71126;BME280;58785;55.566;38.058;2023-02-02T03:42:40;99352.72;;;1.17;72.48
71126;BME280;58785;55.566;38.058;2023-02-02T03:45:07;99371.75;;;1.21;72.13
71126;BME280;58785;55.566;38.058;2023-02-02T03:47:33;99352.72;;;1.17;72.35
71126;BME280;58785;55.566;38.058;2023-02-02T03:49:58;99357.13;;;1.17;72.31
71126;BME280;58785;55.566;38.058;2023-02-02T03:52:24;99374.38;;;1.21;72.71
71126;BME280;58785;55.566;38.058;2023-02-02T03:54:50;99370.03;;;1.20;72.51
71126;BME280;58785;55.566;38.058;2023-02-02T03:57:16;99366.56;;;1.19;72.03
71126;BME280;58785;55.566;38.058;2023-02-02T03:59:41;99366.50;;;1.21;72.12
71126;BME280;58785;55.566;38.058;2023-02-02T04:02:07;99356.81;;;1.08;72.52
71126;BME280;58785;55.566;38.058;2023-02-02T04:04:33;99367.44;;;1.07;72.46
71126;BME280;58785;55.566;38.058;2023-02-02T04:06:59;99374.59;;;1.05;72.30
71126;BME280;58785;55.566;38.058;2023-02-02T04:09:26;99371.13;;;1.04;72.30
71126;BME280;58785;55.566;38.058;2023-02-02T04:11:51;99372.19;;;1.02;72.53
71126;BME280;58785;55.566;38.058;2023-02-02T04:14:17;99374.81;;;1.02;72.47
71126;BME280;58785;55.566;38.058;2023-02-02T04:16:45;99373.75;;;1.04;72.20
71126;BME280;58785;55.566;38.058;2023-02-02T04:19:10;99377.22;;;1.05;72.17
71126;BME280;58785;55.566;38.058;2023-02-02T04:21:39;99376.16;;;1.07;72.22
71126;BME280;58785;55.566;38.058;2023-02-02T04:24:08;99374.81;;;1.02;71.92
71126;BME280;58785;55.566;38.058;2023-02-02T04:26:34;99383.28;;;1.05;72.19
71126;BME280;58785;55.566;38.058;2023-02-02T04:29:00;99380.66;;;1.05;72.04
71126;BME280;58785;55.566;38.058;2023-02-02T04:31:25;99374.69;;;1.03;71.87
71126;BME280;58785;55.566;38.058;2023-02-02T04:33:51;99383.41;;;1.04;71.87
71126;BME280;58785;55.566;38.058;2023-02-02T04:36:17;99360.63;;;0.92;72.08
71126;BME280;58785;55.566;38.058;2023-02-02T04:38:43;99366.50;;;0.95;72.22
71126;BME280;58785;55.566;38.058;2023-02-02T04:41:10;99379.50;;;0.97;72.31
71126;BME280;58785;55.566;38.058;2023-02-02T04:43:36;99368.50;;;0.92;72.46
71126;BME280;58785;55.566;38.058;2023-02-02T04:46:03;99379.41;;;0.85;72.10
71126;BME280;58785;55.566;38.058;2023-02-02T04:48:29;99369.53;;;0.76;72.62
71126;BME280;58785;55.566;38.058;2023-02-02T04:50:59;99376.34;;;0.79;72.59
71126;BME280;58785;55.566;38.058;2023-02-02T04:53:25;99372.25;;;0.75;72.72
71126;BME280;58785;55.566;38.058;2023-02-02T04:55:51;99386.53;;;0.71;72.47
71126;BME280;58785;55.566;38.058;2023-02-02T04:58:17;99379.91;;;0.65;72.36
71126;BME280;58785;55.566;38.058;2023-02-02T05:00:43;99385.25;;;0.64;72.63
71126;BME280;58785;55.566;38.058;2023-02-02T05:03:09;99396.38;;;0.67;72.51
71126;BME280;58785;55.566;38.058;2023-02-02T05:05:35;99394.81;;;0.65;72.75
71126;BME280;58785;55.566;38.058;2023-02-02T05:08:00;99385.56;;;0.59;72.57
71126;BME280;58785;55.566;38.058;2023-02-02T05:10:26;99394.91;;;0.63;72.30
71126;BME280;58785;55.566;38.058;2023-02-02T05:12:52;99392.19;;;0.65;72.29
71126;BME280;58785;55.566;38.058;2023-02-02T05:15:18;99396.81;;;0.61;72.32
71126;BME280;58785;55.566;38.058;2023-02-02T05:17:46;99401.94;;;0.63;72.47
71126;BME280;58785;55.566;38.058;2023-02-02T05:20:12;99394.19;;;0.61;72.36
71126;BME280;58785;55.566;38.058;2023-02-02T05:22:37;99395.63;;;0.52;72.45
71126;BME280;58785;55.566;38.058;2023-02-02T05:25:04;99411.06;;;0.57;72.28
71126;BME280;58785;55.566;38.058;2023-02-02T05:27:30;99415.47;;;0.56;72.33
71126;BME280;58785;55.566;38.058;2023-02-02T05:29:56;99407.38;;;0.60;72.27
71126;BME280;58785;55.566;38.058;2023-02-02T05:32:21;99416.84;;;0.62;72.48
71126;BME280;58785;55.566;38.058;2023-02-02T05:34:47;99400.34;;;0.60;72.30
71126;BME280;58785;55.566;38.058;2023-02-02T05:37:13;99407.81;;;0.66;71.87
71126;BME280;58785;55.566;38.058;2023-02-02T05:39:38;99408.56;;;0.68;72.33
71126;BME280;58785;55.566;38.058;2023-02-02T05:42:04;99407.44;;;0.72;71.87
71126;BME280;58785;55.566;38.058;2023-02-02T05:44:30;99400.41;;;0.73;72.06
71126;BME280;58785;55.566;38.058;2023-02-02T05:50:36;99407.66;;;0.82;71.61
71126;BME280;58785;55.566;38.058;2023-02-02T05:53:02;99411.63;;;0.88;72.02
71126;BME280;58785;55.566;38.058;2023-02-02T05:55:28;99412.34;;;0.90;71.30
71126;BME280;58785;55.566;38.058;2023-02-02T05:57:53;99408.91;;;0.89;71.26
71126;BME280;58785;55.566;38.058;2023-02-02T06:00:19;99402.69;;;0.90;71.70
71126;BME280;58785;55.566;38.058;2023-02-02T06:02:45;99412.06;;;0.94;71.66
71126;BME280;58785;55.566;38.058;2023-02-02T06:05:10;99421.22;;;1.01;71.33
71126;BME280;58785;55.566;38.058;2023-02-02T06:07:36;99409.03;;;1.00;71.23
71126;BME280;58785;55.566;38.058;2023-02-02T06:10:02;99409.75;;;1.02;71.37
71126;BME280;58785;55.566;38.058;2023-02-02T06:12:29;99419.72;;;1.10;71.60
71126;BME280;58785;55.566;38.058;2023-02-02T06:14:54;99409.53;;;1.05;71.54
71126;BME280;58785;55.566;38.058;2023-02-02T06:17:20;99431.72;;;1.14;70.99
71126;BME280;58785;55.566;38.058;2023-02-02T06:19:46;99430.13;;;1.11;70.99
71126;BME280;58785;55.566;38.058;2023-02-02T06:22:11;99435.28;;;1.13;71.05
71126;BME280;58785;55.566;38.058;2023-02-02T06:24:37;99435.78;;;1.18;71.29
71126;BME280;58785;55.566;38.058;2023-02-02T06:27:02;99429.81;;;1.16;71.05
71126;BME280;58785;55.566;38.058;2023-02-02T06:29:28;99444.22;;;1.23;71.21
71126;BME280;58785;55.566;38.058;2023-02-02T06:31:54;99439.47;;;1.28;71.23
71126;BME280;58785;55.566;38.058;2023-02-02T06:34:19;99432.25;;;1.32;70.48
71126;BME280;58785;55.566;38.058;2023-02-02T06:36:45;99427.50;;;1.24;70.90
71126;BME280;58785;55.566;38.058;2023-02-02T06:39:11;99430.44;;;1.32;71.00
71126;BME280;58785;55.566;38.058;2023-02-02T06:41:36;99434.31;;;1.39;70.72
71126;BME280;58785;55.566;38.058;2023-02-02T06:44:02;99433.59;;;1.37;70.74
71126;BME280;58785;55.566;38.058;2023-02-02T06:46:28;99422.88;;;1.28;70.53
71126;BME280;58785;55.566;38.058;2023-02-02T06:48:53;99439.34;;;1.30;70.63
71126;BME280;58785;55.566;38.058;2023-02-02T06:51:19;99436.53;;;1.33;70.70
71126;BME280;58785;55.566;38.058;2023-02-02T06:53:48;99446.09;;;1.34;70.50
71126;BME280;58785;55.566;38.058;2023-02-02T06:56:14;99441.47;;;1.37;70.26
71126;BME280;58785;55.566;38.058;2023-02-02T06:58:40;99438.53;;;1.42;70.26
71126;BME280;58785;55.566;38.058;2023-02-02T07:01:09;99428.03;;;1.42;70.42
71126;BME280;58785;55.566;38.058;2023-02-02T07:03:35;99444.19;;;1.49;70.45
71126;BME280;58785;55.566;38.058;2023-02-02T07:06:22;99441.25;;;1.53;70.40
71126;BME280;58785;55.566;38.058;2023-02-02T07:08:49;99430.75;;;1.53;69.83
71126;BME280;58785;55.566;38.058;2023-02-02T07:11:16;99439.13;;;1.58;69.95
71126;BME280;58785;55.566;38.058;2023-02-02T07:13:43;99429.16;;;1.63;70.03
71126;BME280;58785;55.566;38.058;2023-02-02T07:16:09;99433.75;;;1.72;69.60
71126;BME280;58785;55.566;38.058;2023-02-02T07:18:37;99430.69;;;1.79;69.87
71126;BME280;58785;55.566;38.058;2023-02-02T07:21:03;99428.59;;;1.84;69.29
71126;BME280;58785;55.566;38.058;2023-02-02T07:23:29;99425.31;;;1.80;69.67
71126;BME280;58785;55.566;38.058;2023-02-02T07:26:05;99422.88;;;1.90;69.30
71126;BME280;58785;55.566;38.058;2023-02-02T07:28:32;99438.63;;;2.03;69.12
71126;BME280;58785;55.566;38.058;2023-02-02T07:30:59;99427.44;;;2.12;69.34
71126;BME280;58785;55.566;38.058;2023-02-02T07:33:24;99437.91;;;2.24;68.78
71126;BME280;58785;55.566;38.058;2023-02-02T07:35:51;99432.94;;;2.33;68.54
71126;BME280;58785;55.566;38.058;2023-02-02T07:38:17;99436.72;;;2.28;68.84
71126;BME280;58785;55.566;38.058;2023-02-02T07:40:43;99435.88;;;2.28;69.20
71126;BME280;58785;55.566;38.058;2023-02-02T07:43:09;99436.53;;;2.32;69.19
71126;BME280;58785;55.566;38.058;2023-02-02T07:45:35;99429.59;;;2.30;68.79
71126;BME280;58785;55.566;38.058;2023-02-02T07:48:00;99442.78;;;2.42;68.72
71126;BME280;58785;55.566;38.058;2023-02-02T07:50:27;99445.69;;;2.50;68.59
71126;BME280;58785;55.566;38.058;2023-02-02T07:52:54;99445.97;;;2.58;68.64
71126;BME280;58785;55.566;38.058;2023-02-02T07:55:20;99446.75;;;2.71;68.37
71126;BME280;58785;55.566;38.058;2023-02-02T07:57:45;99452.38;;;2.78;68.45
71126;BME280;58785;55.566;38.058;2023-02-02T08:00:12;99447.59;;;2.72;68.46
71126;BME280;58785;55.566;38.058;2023-02-02T08:02:38;99456.84;;;2.88;67.92
71126;BME280;58785;55.566;38.058;2023-02-02T08:05:04;99456.00;;;2.88;68.28
71126;BME280;58785;55.566;38.058;2023-02-02T08:07:34;99460.56;;;2.86;67.83
71126;BME280;58785;55.566;38.058;2023-02-02T08:10:00;99454.81;;;2.81;68.28
71126;BME280;58785;55.566;38.058;2023-02-02T08:12:26;99457.91;;;2.86;68.24
71126;BME280;58785;55.566;38.058;2023-02-02T08:14:52;99453.22;;;2.78;68.48
71126;BME280;58785;55.566;38.058;2023-02-02T08:17:18;99456.25;;;2.85;68.25
71126;BME280;58785;55.566;38.058;2023-02-02T08:19:43;99460.94;;;2.93;68.35
71126;BME280;58785;55.566;38.058;2023-02-02T08:22:09;99458.44;;;2.91;68.19
71126;BME280;58785;55.566;38.058;2023-02-02T08:24:35;99454.22;;;2.88;68.20
71126;BME280;58785;55.566;38.058;2023-02-02T08:27:08;99446.03;;;2.80;68.30
71126;BME280;58785;55.566;38.058;2023-02-02T08:29:35;99451.13;;;2.95;67.92
71126;BME280;58785;55.566;38.058;2023-02-02T08:32:02;99442.50;;;2.93;67.90
71126;BME280;58785;55.566;38.058;2023-02-02T08:34:28;99456.53;;;3.04;67.58
71126;BME280;58785;55.566;38.058;2023-02-02T08:36:54;99444.22;;;3.05;67.71
71126;BME280;58785;55.566;38.058;2023-02-02T08:39:20;99441.22;;;3.09;67.81
71126;BME280;58785;55.566;38.058;2023-02-02T08:41:45;99443.53;;;3.25;67.44
71126;BME280;58785;55.566;38.058;2023-02-02T08:44:13;99448.34;;;3.31;67.49
71126;BME280;58785;55.566;38.058;2023-02-02T08:46:40;99434.53;;;3.28;67.25
71126;BME280;58785;55.566;38.058;2023-02-02T08:49:10;99431.69;;;3.42;67.04
71126;BME280;58785;55.566;38.058;2023-02-02T08:51:36;99445.22;;;3.60;66.53
71126;BME280;58785;55.566;38.058;2023-02-02T08:54:01;99440.44;;;3.76;65.92
71126;BME280;58785;55.566;38.058;2023-02-02T08:56:27;99432.25;;;3.90;65.84
71126;BME280;58785;55.566;38.058;2023-02-02T08:58:55;99430.50;;;3.91;65.84
71126;BME280;58785;55.566;38.058;2023-02-02T09:01:24;99432.75;;;3.84;65.19
71126;BME280;58785;55.566;38.058;2023-02-02T09:03:55;99427.13;;;3.78;65.28
71126;BME280;58785;55.566;38.058;2023-02-02T09:06:25;99429.31;;;3.72;65.31
71126;BME280;58785;55.566;38.058;2023-02-02T09:08:51;99424.38;;;3.57;65.46
71126;BME280;58785;55.566;38.058;2023-02-02T09:11:18;99432.41;;;3.55;65.46
71126;BME280;58785;55.566;38.058;2023-02-02T09:13:46;99431.91;;;3.50;65.48
71126;BME280;58785;55.566;38.058;2023-02-02T09:16:15;99430.50;;;3.35;65.60
71126;BME280;58785;55.566;38.058;2023-02-02T09:18:42;99439.34;;;3.34;65.42
71126;BME280;58785;55.566;38.058;2023-02-02T09:21:11;99430.59;;;3.33;65.43
71126;BME280;58785;55.566;38.058;2023-02-02T09:23:39;99430.72;;;3.32;65.65
71126;BME280;58785;55.566;38.058;2023-02-02T09:26:15;99441.75;;;3.37;65.67
71126;BME280;58785;55.566;38.058;2023-02-02T09:28:45;99440.19;;;3.45;65.21
71126;BME280;58785;55.566;38.058;2023-02-02T09:31:12;99442.38;;;3.52;65.00
71126;BME280;58785;55.566;38.058;2023-02-02T09:33:38;99443.06;;;3.65;64.94
71126;BME280;58785;55.566;38.058;2023-02-02T09:36:12;99447.88;;;3.71;64.40
71126;BME280;58785;55.566;38.058;2023-02-02T09:38:39;99455.44;;;3.64;64.47
71126;BME280;58785;55.566;38.058;2023-02-02T09:41:19;99453.84;;;3.51;64.60
71126;BME280;58785;55.566;38.058;2023-02-02T09:49:50;99440.81;;;3.83;63.93
71126;BME280;58785;55.566;38.058;2023-02-02T09:55:14;99429.16;;;3.85;63.60
71126;BME280;58785;55.566;38.058;2023-02-02T09:57:53;99437.41;;;3.81;63.57
71126;BME280;58785;55.566;38.058;2023-02-02T10:00:28;99439.72;;;3.85;63.63
71126;BME280;58785;55.566;38.058;2023-02-02T10:03:00;99438.16;;;3.83;64.04
71126;BME280;58785;55.566;38.058;2023-02-02T10:05:38;99437.91;;;3.86;63.96
71126;BME280;58785;55.566;38.058;2023-02-02T10:08:07;99435.66;;;3.81;63.96
71126;BME280;58785;55.566;38.058;2023-02-02T10:10:40;99427.97;;;3.67;64.34
71126;BME280;58785;55.566;38.058;2023-02-02T10:13:14;99437.22;;;3.61;64.43
71126;BME280;58785;55.566;38.058;2023-02-02T10:15:53;99425.47;;;3.54;63.81
71126;BME280;58785;55.566;38.058;2023-02-02T10:20:58;99431.00;;;3.51;63.60
71126;BME280;58785;55.566;38.058;2023-02-02T10:23:38;99437.94;;;3.52;63.76
71126;BME280;58785;55.566;38.058;2023-02-02T10:26:18;99432.03;;;3.60;63.53
71126;BME280;58785;55.566;38.058;2023-02-02T10:29:17;99420.78;;;3.58;63.39
71126;BME280;58785;55.566;38.058;2023-02-02T10:34:21;99429.31;;;3.61;63.25
71126;BME280;58785;55.566;38.058;2023-02-02T10:37:14;99432.41;;;3.55;62.91
71126;BME280;58785;55.566;38.058;2023-02-02T10:45:51;99426.50;;;3.18;63.92
71126;BME280;58785;55.566;38.058;2023-02-02T10:48:25;99424.50;;;3.22;64.24
71126;BME280;58785;55.566;38.058;2023-02-02T10:50:57;99423.41;;;3.24;63.77
71126;BME280;58785;55.566;38.058;2023-02-02T10:53:27;99422.69;;;3.22;63.54
71126;BME280;58785;55.566;38.058;2023-02-02T10:56:09;99422.06;;;3.18;64.05
71126;BME280;58785;55.566;38.058;2023-02-02T10:58:45;99417.16;;;3.14;63.67
71126;BME280;58785;55.566;38.058;2023-02-02T11:01:14;99405.53;;;3.05;63.98
71126;BME280;58785;55.566;38.058;2023-02-02T11:03:42;99419.31;;;3.09;63.78
71126;BME280;58785;55.566;38.058;2023-02-02T11:06:10;99423.03;;;3.17;63.95
71126;BME280;58785;55.566;38.058;2023-02-02T11:08:56;99410.56;;;3.20;63.96
71126;BME280;58785;55.566;38.058;2023-02-02T11:11:38;99413.34;;;3.29;63.44
71126;BME280;58785;55.566;38.058;2023-02-02T11:16:34;99415.63;;;3.34;63.67
71126;BME280;58785;55.566;38.058;2023-02-02T11:19:00;99418.63;;;3.40;63.35
71126;BME280;58785;55.566;38.058;2023-02-02T11:21:28;99424.00;;;3.39;63.35
71126;BME280;58785;55.566;38.058;2023-02-02T11:24:05;99415.97;;;3.29;63.70
71126;BME280;58785;55.566;38.058;2023-02-02T11:31:52;99427.03;;;3.45;63.68
71126;BME280;58785;55.566;38.058;2023-02-02T11:34:26;99416.47;;;3.45;62.93
71126;BME280;58785;55.566;38.058;2023-02-02T11:37:09;99429.66;;;3.45;63.78
71126;BME280;58785;55.566;38.058;2023-02-02T11:39:36;99436.59;;;3.35;63.81
71126;BME280;58785;55.566;38.058;2023-02-02T11:42:16;99438.00;;;3.28;63.74
71126;BME280;58785;55.566;38.058;2023-02-02T11:44:51;99440.75;;;3.15;64.01
71126;BME280;58785;55.566;38.058;2023-02-02T11:47:28;99445.03;;;3.05;63.76
71126;BME280;58785;55.566;38.058;2023-02-02T11:49:57;99445.03;;;2.94;63.76
71126;BME280;58785;55.566;38.058;2023-02-02T11:52:26;99443.69;;;3.00;63.72
71126;BME280;58785;55.566;38.058;2023-02-02T11:55:00;99442.28;;;3.07;64.24
71126;BME280;58785;55.566;38.058;2023-02-02T11:57:27;99450.31;;;3.05;63.82
71126;BME280;58785;55.566;38.058;2023-02-02T12:00:17;99440.97;;;3.01;63.38
71126;BME280;58785;55.566;38.058;2023-02-02T12:02:51;99451.13;;;2.95;64.04
71126;BME280;58785;55.566;38.058;2023-02-02T12:07:46;99444.19;;;2.94;63.58
71126;BME280;58785;55.566;38.058;2023-02-02T12:10:37;99444.50;;;2.89;63.70
71126;BME280;58785;55.566;38.058;2023-02-02T12:13:17;99440.44;;;2.85;63.70
71126;BME280;58785;55.566;38.058;2023-02-02T12:26:32;99455.81;;;3.02;63.97
71126;BME280;58785;55.566;38.058;2023-02-02T12:35:31;99455.56;;;2.94;63.71
71126;BME280;58785;55.566;38.058;2023-02-02T12:43:22;99456.97;;;2.87;64.46
71126;BME280;58785;55.566;38.058;2023-02-02T12:46:19;99454.09;;;2.90;63.81
71126;BME280;58785;55.566;38.058;2023-02-02T12:48:59;99447.00;;;2.79;64.23
71126;BME280;58785;55.566;38.058;2023-02-02T12:51:34;99457.66;;;2.78;64.22
71126;BME280;58785;55.566;38.058;2023-02-02T12:57:20;99462.03;;;2.66;64.34
71126;BME280;58785;55.566;38.058;2023-02-02T13:08:35;99467.81;;;2.47;65.40
71126;BME280;58785;55.566;38.058;2023-02-02T13:11:09;99465.81;;;2.51;65.11
71126;BME280;58785;55.566;38.058;2023-02-02T13:13:58;99463.91;;;2.53;65.29
71126;BME280;58785;55.566;38.058;2023-02-02T13:16:25;99460.31;;;2.54;64.89
71126;BME280;58785;55.566;38.058;2023-02-02T13:18:57;99451.19;;;2.47;65.41
71126;BME280;58785;55.566;38.058;2023-02-02T13:21:24;99463.53;;;2.57;65.45
71126;BME280;58785;55.566;38.058;2023-02-02T13:23:55;99458.13;;;2.48;65.38
71126;BME280;58785;55.566;38.058;2023-02-02T13:26:26;99452.25;;;2.44;65.52
71126;BME280;58785;55.566;38.058;2023-02-02T13:31:26;99460.38;;;2.41;66.05
71126;BME280;58785;55.566;38.058;2023-02-02T13:36:34;99456.16;;;2.39;65.69
71126;BME280;58785;55.566;38.058;2023-02-02T13:39:12;99464.69;;;2.42;65.71
71126;BME280;58785;55.566;38.058;2023-02-02T13:41:39;99467.75;;;2.36;66.12
71126;BME280;58785;55.566;38.058;2023-02-02T13:44:16;99460.75;;;2.24;66.45
71126;BME280;58785;55.566;38.058;2023-02-02T13:46:51;99460.97;;;2.21;66.30
71126;BME280;58785;55.566;38.058;2023-02-02T13:49:44;99459.00;;;2.12;66.44
71126;BME280;58785;55.566;38.058;2023-02-02T13:57:45;99454.78;;;2.09;67.26
71126;BME280;58785;55.566;38.058;2023-02-02T14:00:33;99469.94;;;2.06;67.03
71126;BME280;58785;55.566;38.058;2023-02-02T14:03:05;99462.84;;;1.95;66.96
71126;BME280;58785;55.566;38.058;2023-02-02T14:05:42;99462.94;;;1.93;67.17
71126;BME280;58785;55.566;38.058;2023-02-02T14:08:18;99463.25;;;1.89;67.16
71126;BME280;58785;55.566;38.058;2023-02-02T14:10:57;99473.97;;;1.98;66.83
71126;BME280;58785;55.566;38.058;2023-02-02T14:13:45;99478.50;;;1.96;66.94
71126;BME280;58785;55.566;38.058;2023-02-02T14:18:59;99478.00;;;1.91;67.26
71126;BME280;58785;55.566;38.058;2023-02-02T14:26:53;99481.78;;;1.87;67.38
71126;BME280;58785;55.566;38.058;2023-02-02T14:34:42;99490.94;;;1.82;67.18
71126;BME280;58785;55.566;38.058;2023-02-02T14:45:15;99498.91;;;1.80;67.56
71126;BME280;58785;55.566;38.058;2023-02-02T14:47:47;99499.25;;;1.76;67.43
71126;BME280;58785;55.566;38.058;2023-02-02T14:50:44;99507.25;;;1.74;67.63
71126;BME280;58785;55.566;38.058;2023-02-02T14:58:44;99526.06;;;1.81;67.46
71126;BME280;58785;55.566;38.058;2023-02-02T15:03:55;99525.00;;;1.83;67.69
71126;BME280;58785;55.566;38.058;2023-02-02T15:06:36;99532.78;;;1.85;67.66
71126;BME280;58785;55.566;38.058;2023-02-02T15:12:45;99530.44;;;1.80;67.55
71126;BME280;58785;55.566;38.058;2023-02-02T15:15:32;99530.38;;;1.82;67.70
71126;BME280;58785;55.566;38.058;2023-02-02T15:18:04;99531.41;;;1.79;67.98
71126;BME280;58785;55.566;38.058;2023-02-02T15:20:48;99528.03;;;1.77;67.91
71126;BME280;58785;55.566;38.058;2023-02-02T15:23:31;99530.16;;;1.72;68.64
71126;BME280;58785;55.566;38.058;2023-02-02T15:26:03;99526.38;;;1.63;68.00
71126;BME280;58785;55.566;38.058;2023-02-02T15:33:55;99535.31;;;1.61;68.48
71126;BME280;58785;55.566;38.058;2023-02-02T15:36:25;99523.94;;;1.60;68.62